Terminal Aerodrome Forecast
Issued by NWS Detroit/Pontiac, MI

Home | Current Version | Previous Version | Text Only | Print | Product List | Glossary On
Versions: 1 2 3 4 5 6 7 8 9 10 11 12 13 14 15 16 17
000
FTUS43 KDTX 172300
TAFFNT
TAF
KFNT 172321Z 1800/1824 29005KT P6SM FEW060
     FM180600 01006KT P6SM SCT010 BKN060
     FM180900 02006KT 6SM BR OVC008
     FM181400 03007KT P6SM BKN016
     FM181900 04008KT P6SM BKN040=

USA.gov is the U.S. government's official web portal to all federal, state and local government web resources and services.